Time;durP1;ratioP1;P1;durP2;ratioP2;P2;SDS_P1;SDS_P2;PMS_P1;PMS_P2;Temp;Humidity;BMP_temperature;BMP_pressure;BME280_temperature;BME280_humidity;BME280_pressure;Samples;Min_cycle;Max_cycle;Signal;HPM_P1;HPM_P2
2022/05/29 00:00:11;;;;;;;;;;;;;;;9.54;75.27;99539.98;107781;1267;96108;-73
2022/05/29 00:02:58;;;;;;;;;;;;;;;9.55;75.28;99537.86;107525;1268;124438;-74
2022/05/29 00:05:26;;;;;;;;;;;;;;;9.55;75.26;99540.48;107870;1267;112430;-73
2022/05/29 00:07:53;;;;;;;;;;;;;;;9.54;75.32;99538.25;106787;1268;124863;-73
2022/05/29 00:10:21;;;;;;;;;;;;;;;9.57;75.35;99539.34;106417;1268;108311;-71
2022/05/29 00:12:48;;;;;;;;;;;;;;;9.56;75.34;99540.23;106442;1268;97889;-74
2022/05/29 00:15:16;;;;;;;;;;;;;;;9.55;75.37;99540.28;106356;1268;124699;-73
2022/05/29 00:17:43;;;;;;;;;;;;;;;9.56;75.58;99537.65;106453;1268;97845;-73
2022/05/29 00:20:12;;;;;;;;;;;;;;;9.55;75.57;99541.66;106322;1268;124844;-73
2022/05/29 00:22:39;;;;;;;;;;;;;;;9.53;75.63;99543.86;106347;1268;108779;-73
2022/05/29 00:25:08;;;;;;;;;;;;;;;9.50;75.71;99543.58;106253;1268;124859;-72
2022/05/29 00:27:36;;;;;;;;;;;;;;;9.49;75.89;99540.86;107832;1268;95965;-73
2022/05/29 00:30:05;;;;;;;;;;;;;;;9.49;75.99;99538.41;107834;1268;111465;-73
2022/05/29 00:32:33;;;;;;;;;;;;;;;9.49;76.02;99540.35;106319;1268;126158;-73
2022/05/29 00:35:01;;;;;;;;;;;;;;;9.47;75.95;99538.66;106413;1268;107362;-72
2022/05/29 00:37:32;;;;;;;;;;;;;;;9.46;76.04;99541.17;106258;1267;125469;-72
2022/05/29 00:40:00;;;;;;;;;;;;;;;9.47;76.04;99546.66;106476;1268;98874;-73
2022/05/29 00:42:28;;;;;;;;;;;;;;;9.47;75.85;99546.12;106429;1267;112507;-73
2022/05/29 00:44:55;;;;;;;;;;;;;;;9.49;76.11;99548.31;107484;1268;125254;-73
2022/05/29 00:47:24;;;;;;;;;;;;;;;9.51;75.91;99548.75;107869;1268;96837;-73
2022/05/29 00:49:51;;;;;;;;;;;;;;;9.51;76.01;99549.27;106723;1267;126543;-73
2022/05/29 00:52:21;;;;;;;;;;;;;;;9.52;75.88;99550.48;106547;1268;98257;-73
2022/05/29 00:54:53;;;;;;;;;;;;;;;9.53;76.03;99549.58;106385;1268;112504;-73
2022/05/29 00:57:25;;;;;;;;;;;;;;;9.53;75.98;99549.90;106440;1268;124534;-73
2022/05/29 00:59:53;;;;;;;;;;;;;;;9.52;75.96;99548.20;107659;1267;107969;-72
2022/05/29 01:02:20;;;;;;;;;;;;;;;9.53;75.98;99547.33;107421;1268;124679;-73
2022/05/29 01:04:48;;;;;;;;;;;;;;;9.54;75.96;99542.23;106410;1268;97844;-72
2022/05/29 01:07:17;;;;;;;;;;;;;;;9.53;76.04;99539.65;106381;1268;125097;-71
2022/05/29 01:09:46;;;;;;;;;;;;;;;9.53;75.85;99537.42;106415;1268;109343;-71
2022/05/29 01:12:19;;;;;;;;;;;;;;;9.53;75.89;99535.67;106309;1271;107816;-73
2022/05/29 01:14:55;;;;;;;;;;;;;;;9.55;75.95;99537.48;107779;1268;125138;-73
2022/05/29 01:17:30;;;;;;;;;;;;;;;9.55;75.84;99541.15;107903;1268;96097;-73
2022/05/29 01:20:05;;;;;;;;;;;;;;;9.54;75.80;99538.42;106730;1268;125412;-73
2022/05/29 01:22:45;;;;;;;;;;;;;;;9.53;75.83;99535.00;106511;1268;108721;-73
2022/05/29 01:25:30;;;;;;;;;;;;;;;9.50;75.73;99536.46;106394;1268;124872;-72
2022/05/29 01:28:06;;;;;;;;;;;;;;;9.50;75.90;99536.30;106011;1274;98000;-73
2022/05/29 01:30:38;;;;;;;;;;;;;;;9.49;75.81;99539.45;106021;1274;98143;-72
2022/05/29 01:33:10;;;;;;;;;;;;;;;9.49;75.79;99539.48;105958;1274;124478;-71
2022/05/29 01:35:42;;;;;;;;;;;;;;;9.50;75.90;99543.27;107484;1276;109191;-71
2022/05/29 01:38:18;;;;;;;;;;;;;;;9.51;75.80;99549.45;106780;1274;125343;-73
2022/05/29 01:40:48;;;;;;;;;;;;;;;9.50;75.67;99548.42;106225;1274;97982;-73
2022/05/29 01:43:21;;;;;;;;;;;;;;;9.50;75.55;99546.55;105917;1274;124835;-73
2022/05/29 01:45:55;;;;;;;;;;;;;;;9.50;75.61;99549.98;105990;1276;112721;-73
2022/05/29 01:48:34;;;;;;;;;;;;;;;9.50;75.52;99546.72;106048;1273;108094;-73
2022/05/29 01:51:05;;;;;;;;;;;;;;;9.48;75.53;99542.61;105952;1274;125010;-72
2022/05/29 01:53:35;;;;;;;;;;;;;;;9.47;75.62;99542.85;105999;1276;97851;-72
2022/05/29 01:56:06;;;;;;;;;;;;;;;9.46;75.50;99542.02;105794;1275;124688;-72
2022/05/29 01:58:36;;;;;;;;;;;;;;;9.46;75.55;99542.52;105997;1275;112580;-74
2022/05/29 02:01:48;;;;;;;;;;;;;;;9.46;75.47;99537.49;106188;1259;109092;-86
2022/05/29 02:04:20;;;;;;;;;;;;;;;9.46;75.40;99536.30;106644;1277;108772;-72
2022/05/29 02:09:37;;;;;;;;;;;;;;;9.43;75.37;99537.45;105965;1276;97861;-72
2022/05/29 02:12:08;;;;;;;;;;;;;;;9.43;75.51;99541.12;105548;1276;113118;-72
2022/05/29 02:14:38;;;;;;;;;;;;;;;9.43;75.51;99542.64;106900;1276;126375;-73
2022/05/29 02:17:09;;;;;;;;;;;;;;;9.43;75.52;99540.75;107049;1276;107721;-73
2022/05/29 02:19:39;;;;;;;;;;;;;;;9.44;75.72;99541.91;107006;1276;125602;-73
2022/05/29 02:22:09;;;;;;;;;;;;;;;9.44;75.70;99542.45;105535;1277;97938;-73
2022/05/29 02:24:40;;;;;;;;;;;;;;;9.44;75.73;99542.61;105481;1277;112971;-72
2022/05/29 02:27:09;;;;;;;;;;;;;;;9.46;75.87;99541.34;105427;1276;126560;-73
2022/05/29 02:29:37;;;;;;;;;;;;;;;9.47;75.88;99542.51;105562;1277;108647;-73
2022/05/29 02:32:10;;;;;;;;;;;;;;;9.49;75.97;99540.52;105434;1277;124749;-73
2022/05/29 02:34:42;;;;;;;;;;;;;;;9.49;76.05;99537.02;105600;1276;97948;-73
2022/05/29 02:37:15;;;;;;;;;;;;;;;9.49;76.07;99541.17;105465;1276;124944;-71
2022/05/29 02:39:48;;;;;;;;;;;;;;;9.50;76.07;99542.88;105590;1276;108290;-72
2022/05/29 02:42:21;;;;;;;;;;;;;;;9.50;76.15;99542.55;105527;1276;107412;-71
2022/05/29 02:44:55;;;;;;;;;;;;;;;9.48;76.24;99540.54;105532;1276;124703;-71
2022/05/29 02:47:29;;;;;;;;;;;;;;;9.49;76.29;99539.64;105632;1276;97829;-72
2022/05/29 02:50:20;;;;;;;;;;;;;;;9.51;76.33;99542.17;105544;1276;125222;-73
2022/05/29 02:52:51;;;;;;;;;;;;;;;9.52;76.27;99536.75;105525;1275;107552;-71
2022/05/29 02:55:19;;;;;;;;;;;;;;;9.54;76.22;99539.45;105535;1274;125054;-72
2022/05/29 02:57:49;;;;;;;;;;;;;;;9.54;76.24;99542.39;105625;1277;98373;-72
2022/05/29 03:00:17;;;;;;;;;;;;;;;9.57;76.29;99542.99;105657;1276;97839;-71
2022/05/29 03:02:53;;;;;;;;;;;;;;;9.58;76.30;99545.19;107018;1276;125073;-73
2022/05/29 03:05:24;;;;;;;;;;;;;;;9.59;76.28;99548.98;106189;1276;108048;-72
2022/05/29 03:08:03;;;;;;;;;;;;;;;9.56;76.09;99548.56;105496;1276;124734;-71
2022/05/29 03:10:33;;;;;;;;;;;;;;;9.57;76.13;99554.45;106605;1276;97851;-71
2022/05/29 03:13:06;;;;;;;;;;;;;;;9.56;76.11;99557.78;105612;1276;98247;-71
2022/05/29 03:15:36;;;;;;;;;;;;;;;9.56;76.27;99563.33;105661;1276;111807;-72
2022/05/29 03:18:15;;;;;;;;;;;;;;;9.59;76.27;99564.43;105871;1276;108905;-73
2022/05/29 03:20:51;;;;;;;;;;;;;;;9.60;76.20;99565.59;105568;1276;125776;-72
2022/05/29 03:23:22;;;;;;;;;;;;;;;9.63;76.24;99569.46;105630;1276;97857;-72
2022/05/29 03:25:53;;;;;;;;;;;;;;;9.65;76.30;99570.93;105582;1276;124878;-72
2022/05/29 03:28:25;;;;;;;;;;;;;;;9.68;76.13;99569.23;106463;1276;111604;-70
2022/05/29 03:30:54;;;;;;;;;;;;;;;9.70;76.19;99572.17;107019;1276;109179;-71
2022/05/29 03:33:21;;;;;;;;;;;;;;;9.69;75.99;99569.39;106883;1276;125199;-72
2022/05/29 03:36:03;;;;;;;;;;;;;;;9.71;76.06;99569.69;106840;1277;96343;-72
2022/05/29 03:38:30;;;;;;;;;;;;;;;9.73;76.05;99566.00;106939;1276;125075;-72
2022/05/29 03:40:58;;;;;;;;;;;;;;;9.74;75.96;99566.44;107053;1276;112086;-72
2022/05/29 03:43:25;;;;;;;;;;;;;;;9.78;75.95;99569.92;106997;1276;125427;-72
2022/05/29 03:45:53;;;;;;;;;;;;;;;9.78;75.78;99566.99;106200;1276;108791;-72
2022/05/29 03:48:21;;;;;;;;;;;;;;;9.81;75.78;99559.92;106967;1276;96033;-71
2022/05/29 03:50:48;;;;;;;;;;;;;;;9.85;75.75;99563.20;106959;1276;124630;-71
2022/05/29 03:53:17;;;;;;;;;;;;;;;9.91;75.68;99556.37;107028;1276;96321;-72
2022/05/29 03:55:45;;;;;;;;;;;;;;;9.97;75.47;99561.33;106961;1276;124566;-71
2022/05/29 03:58:12;;;;;;;;;;;;;;;10.02;75.25;99565.46;105982;1276;107680;-74
2022/05/29 04:00:40;;;;;;;;;;;;;;;10.07;75.29;99568.59;106650;1276;97699;-71
2022/05/29 04:03:07;;;;;;;;;;;;;;;10.17;75.19;99569.73;106967;1276;124803;-72
2022/05/29 04:05:35;;;;;;;;;;;;;;;10.24;75.08;99570.14;107083;1276;112713;-71
2022/05/29 04:13:39;;;;;;;;;;;;;;;10.31;74.56;99576.85;105542;1276;125933;-72
2022/05/29 04:16:06;;;;;;;;;;;;;;;10.28;74.46;99576.59;105559;1276;98170;-72
2022/05/29 04:18:34;;;;;;;;;;;;;;;10.25;74.49;99575.51;105600;1276;112588;-72
2022/05/29 04:21:01;;;;;;;;;;;;;;;10.23;74.53;99578.02;105495;1276;127008;-73
2022/05/29 04:23:29;;;;;;;;;;;;;;;10.19;74.48;99586.81;106975;1276;109522;-73
2022/05/29 04:25:56;;;;;;;;;;;;;;;10.18;74.55;99584.95;106895;1276;125601;-73
2022/05/29 04:28:24;;;;;;;;;;;;;;;10.21;74.56;99588.35;106688;1274;96221;-72
2022/05/29 04:30:51;;;;;;;;;;;;;;;10.21;74.51;99589.55;105562;1276;112493;-72
2022/05/29 04:33:19;;;;;;;;;;;;;;;10.19;74.60;99595.50;105420;1276;124950;-71
2022/05/29 04:35:50;;;;;;;;;;;;;;;10.17;74.43;99598.20;105578;1276;108894;-73
2022/05/29 04:38:19;;;;;;;;;;;;;;;10.17;74.53;99604.14;105450;1276;125942;-73
2022/05/29 04:40:47;;;;;;;;;;;;;;;10.13;74.45;99600.45;105617;1276;97840;-73
2022/05/29 04:43:14;;;;;;;;;;;;;;;10.11;74.40;99602.98;105377;1276;126064;-74
2022/05/29 04:45:43;;;;;;;;;;;;;;;10.11;74.56;99604.38;105609;1276;108925;-73
2022/05/29 04:48:11;;;;;;;;;;;;;;;10.12;74.58;99606.79;105540;1276;109229;-72
2022/05/29 04:50:40;;;;;;;;;;;;;;;10.14;74.53;99602.84;105413;1276;124938;-71
2022/05/29 04:53:08;;;;;;;;;;;;;;;10.17;74.60;99598.94;105556;1276;97893;-72
2022/05/29 04:55:37;;;;;;;;;;;;;;;10.20;74.61;99598.09;105469;1276;124883;-71
2022/05/29 04:58:06;;;;;;;;;;;;;;;10.21;74.43;99599.63;105535;1276;106100;-72
2022/05/29 05:00:33;;;;;;;;;;;;;;;10.24;74.53;99603.00;105556;1276;108442;-72
2022/05/29 05:03:01;;;;;;;;;;;;;;;10.28;74.57;99596.92;106947;1276;125783;-72
2022/05/29 05:05:29;;;;;;;;;;;;;;;10.34;74.55;99601.56;106917;1276;96281;-72
2022/05/29 05:07:57;;;;;;;;;;;;;;;10.37;74.37;99603.48;106694;1277;125707;-72
2022/05/29 05:10:24;;;;;;;;;;;;;;;10.40;74.25;99598.02;106008;1276;107596;-73
2022/05/29 05:12:52;;;;;;;;;;;;;;;10.48;74.30;99602.19;105603;1276;97890;-71
2022/05/29 05:15:21;;;;;;;;;;;;;;;10.63;74.32;99600.15;105431;1276;124684;-73
2022/05/29 05:17:48;;;;;;;;;;;;;;;10.74;73.83;99598.27;106396;1276;96541;-72
2022/05/29 05:20:16;;;;;;;;;;;;;;;10.77;73.74;99597.97;106885;1276;125855;-73
2022/05/29 05:22:43;;;;;;;;;;;;;;;10.84;73.63;99596.82;106528;1276;107854;-72
2022/05/29 05:25:12;;;;;;;;;;;;;;;10.86;73.45;99598.78;105941;1276;125115;-72
2022/05/29 05:27:39;;;;;;;;;;;;;;;10.93;73.49;99604.06;106582;1277;98071;-70
2022/05/29 05:30:09;;;;;;;;;;;;;;;11.00;73.39;99609.17;105577;1276;98485;-71
2022/05/29 05:32:36;;;;;;;;;;;;;;;11.04;73.16;99605.85;106952;1276;124809;-72
2022/05/29 05:35:07;;;;;;;;;;;;;;;11.09;73.02;99610.66;106860;1276;107090;-72
2022/05/29 05:37:36;;;;;;;;;;;;;;;11.12;72.90;99608.96;106871;1276;125907;-72
2022/05/29 05:40:06;;;;;;;;;;;;;;;11.17;72.80;99607.18;106408;1276;97867;-71
2022/05/29 05:42:34;;;;;;;;;;;;;;;11.23;72.67;99605.36;105749;1276;97844;-72
2022/05/29 05:45:04;;;;;;;;;;;;;;;11.26;72.38;99605.71;105509;1276;124887;-71
2022/05/29 05:47:31;;;;;;;;;;;;;;;11.26;72.16;99606.41;105607;1276;108661;-71
2022/05/29 05:49:59;;;;;;;;;;;;;;;11.26;72.11;99611.98;105505;1276;125499;-71
2022/05/29 05:52:26;;;;;;;;;;;;;;;11.28;72.09;99613.27;105654;1276;97872;-71
2022/05/29 05:54:54;;;;;;;;;;;;;;;11.35;72.10;99615.94;105537;1276;97827;-72
2022/05/29 05:57:22;;;;;;;;;;;;;;;11.39;72.02;99616.08;105532;1276;124932;-72
2022/05/29 05:59:49;;;;;;;;;;;;;;;11.42;71.79;99618.38;105591;1276;107787;-72
2022/05/29 06:02:18;;;;;;;;;;;;;;;11.46;71.58;99621.33;105444;1276;125944;-72
2022/05/29 06:04:46;;;;;;;;;;;;;;;11.49;71.33;99620.00;105522;1276;97886;-72
2022/05/29 06:07:14;;;;;;;;;;;;;;;11.51;71.38;99627.93;105425;1276;124969;-72
2022/05/29 06:09:41;;;;;;;;;;;;;;;11.56;71.19;99622.30;105528;1276;112115;-72
2022/05/29 06:12:10;;;;;;;;;;;;;;;11.58;70.85;99627.09;105608;1276;107782;-73
2022/05/29 06:14:37;;;;;;;;;;;;;;;11.68;70.84;99626.27;105437;1276;125112;-73
2022/05/29 06:17:05;;;;;;;;;;;;;;;11.80;70.66;99627.11;105483;1278;97955;-71
2022/05/29 06:19:33;;;;;;;;;;;;;;;11.89;70.44;99626.67;105514;1276;124946;-72
2022/05/29 06:22:01;;;;;;;;;;;;;;;11.99;70.42;99631.44;105606;1276;112955;-72
2022/05/29 06:24:29;;;;;;;;;;;;;;;12.09;69.60;99629.05;105434;1276;109050;-72
2022/05/29 06:26:58;;;;;;;;;;;;;;;12.11;69.24;99633.11;105442;1276;125218;-70
2022/05/29 06:29:26;;;;;;;;;;;;;;;12.16;69.25;99633.39;105568;1276;97948;-72
2022/05/29 06:31:54;;;;;;;;;;;;;;;12.32;69.01;99634.00;105518;1276;124824;-72
2022/05/29 06:34:22;;;;;;;;;;;;;;;12.39;68.28;99635.05;105520;1276;112778;-71
2022/05/29 06:36:49;;;;;;;;;;;;;;;12.39;68.30;99648.48;105550;1276;108069;-72
2022/05/29 06:39:17;;;;;;;;;;;;;;;12.43;68.22;99658.58;105443;1276;125045;-72
2022/05/29 06:41:44;;;;;;;;;;;;;;;12.48;67.94;99653.79;105549;1276;97871;-71
2022/05/29 06:44:12;;;;;;;;;;;;;;;12.49;67.67;99659.31;105447;1276;124827;-72
2022/05/29 06:46:40;;;;;;;;;;;;;;;12.51;67.60;99662.37;105545;1276;112657;-70
2022/05/29 06:49:07;;;;;;;;;;;;;;;12.57;67.55;99661.88;105461;1276;126410;-70
2022/05/29 06:51:35;;;;;;;;;;;;;;;12.66;67.39;99662.15;105521;1276;108883;-70
2022/05/29 06:54:08;;;;;;;;;;;;;;;12.82;67.03;99655.92;105510;1276;98277;-71
2022/05/29 06:56:36;;;;;;;;;;;;;;;13.37;66.97;99653.09;105515;1276;124733;-70
2022/05/29 06:59:06;;;;;;;;;;;;;;;14.37;65.71;99653.15;105548;1276;97840;-71
2022/05/29 07:07:07;;;;;;;;;;;;;;;16.91;60.71;99650.12;106933;1276;124331;-71
2022/05/29 07:09:37;;;;;;;;;;;;;;;17.08;59.34;99654.22;107041;1276;96184;-72
2022/05/29 07:12:08;;;;;;;;;;;;;;;17.73;58.40;99654.45;107070;1276;111231;-72
2022/05/29 07:14:38;;;;;;;;;;;;;;;17.78;56.82;99650.10;107024;1276;125992;-72
2022/05/29 07:17:06;;;;;;;;;;;;;;;17.57;57.13;99665.96;107022;1275;107757;-71
2022/05/29 07:19:34;;;;;;;;;;;;;;;17.55;56.67;99665.91;106840;1277;126129;-72
2022/05/29 07:22:02;;;;;;;;;;;;;;;17.29;56.27;99665.63;106853;1276;97849;-71
2022/05/29 07:24:32;;;;;;;;;;;;;;;16.99;56.30;99675.80;106971;1277;111389;-71
2022/05/29 07:27:00;;;;;;;;;;;;;;;16.60;56.69;99677.98;106901;1275;124987;-71
2022/05/29 07:29:27;;;;;;;;;;;;;;;16.40;57.14;99679.00;107072;1276;109215;-72
2022/05/29 07:31:55;;;;;;;;;;;;;;;16.28;56.99;99673.92;106904;1276;124308;-72
2022/05/29 07:34:24;;;;;;;;;;;;;;;16.29;56.86;99674.73;106940;1276;96327;-69
2022/05/29 07:36:52;;;;;;;;;;;;;;;16.30;56.63;99682.59;105509;1276;112414;-70
2022/05/29 07:39:20;;;;;;;;;;;;;;;16.23;56.74;99684.98;105307;1276;125755;-71
2022/05/29 07:44:36;;;;;;;;;;;;;;;16.71;57.06;99679.74;106233;1276;125050;-71
2022/05/29 07:47:04;;;;;;;;;;;;;;;17.50;55.70;99680.85;105591;1276;98587;-72
2022/05/29 07:49:31;;;;;;;;;;;;;;;17.63;54.97;99683.70;105699;1276;124155;-71
2022/05/29 07:51:59;;;;;;;;;;;;;;;17.57;54.70;99688.82;106986;1276;108678;-71
2022/05/29 07:54:27;;;;;;;;;;;;;;;17.42;54.75;99684.21;107015;1276;108687;-70
2022/05/29 07:56:59;;;;;;;;;;;;;;;17.41;54.93;99688.17;106973;1276;124262;-71
2022/05/29 07:59:27;;;;;;;;;;;;;;;17.67;54.94;99689.52;106986;1276;96734;-72
2022/05/29 08:01:55;;;;;;;;;;;;;;;18.98;54.35;99692.95;106822;1276;124961;-72
2022/05/29 08:04:23;;;;;;;;;;;;;;;20.45;52.09;99688.96;105738;1276;106071;-72
2022/05/29 08:06:50;;;;;;;;;;;;;;;21.27;49.40;99686.77;105554;1274;109210;-71
2022/05/29 08:09:19;;;;;;;;;;;;;;;21.84;48.29;99688.02;105477;1276;124058;-72
2022/05/29 08:11:47;;;;;;;;;;;;;;;22.84;47.50;99692.26;105632;1276;97888;-72
2022/05/29 08:14:16;;;;;;;;;;;;;;;24.05;46.40;99684.79;105470;1276;124176;-72
2022/05/29 08:16:44;;;;;;;;;;;;;;;25.11;44.19;99680.83;105570;1276;107096;-73
2022/05/29 08:19:11;;;;;;;;;;;;;;;26.01;42.63;99677.36;105526;1276;125324;-70
2022/05/29 08:21:40;;;;;;;;;;;;;;;26.73;40.56;99681.04;105614;1276;97978;-71
2022/05/29 08:32:59;;;;;;;;;;;;;;;25.07;38.90;99679.40;106932;1276;124111;-71
2022/05/29 08:35:27;;;;;;;;;;;;;;;24.70;39.21;99684.42;107067;1275;96074;-71
2022/05/29 08:37:55;;;;;;;;;;;;;;;24.18;39.31;99683.98;106934;1276;124071;-71
2022/05/29 08:40:23;;;;;;;;;;;;;;;23.75;39.37;99685.86;106945;1276;112437;-71
2022/05/29 08:42:51;;;;;;;;;;;;;;;23.44;39.47;99678.71;105840;1276;107798;-71
2022/05/29 08:45:19;;;;;;;;;;;;;;;22.98;39.52;99680.90;105426;1276;124396;-71
2022/05/29 08:47:47;;;;;;;;;;;;;;;23.10;40.27;99682.63;107026;1276;96483;-71
2022/05/29 08:50:19;;;;;;;;;;;;;;;23.70;39.67;99677.13;106953;1276;124818;-72
2022/05/29 08:52:54;;;;;;;;;;;;;;;24.18;39.36;99685.25;106433;1275;111634;-70
2022/05/29 08:55:25;;;;;;;;;;;;;;;24.54;38.43;99686.15;105454;1276;124460;-71
2022/05/29 08:57:58;;;;;;;;;;;;;;;24.14;37.45;99684.73;105608;1276;107365;-71
2022/05/29 09:00:33;;;;;;;;;;;;;;;24.15;37.74;99686.30;105581;1274;97854;-71
2022/05/29 09:03:21;;;;;;;;;;;;;;;24.64;37.93;99689.98;106895;1276;124000;-71
2022/05/29 09:05:51;;;;;;;;;;;;;;;24.92;37.39;99691.66;107138;1276;111197;-72
2022/05/29 09:08:20;;;;;;;;;;;;;;;25.37;36.55;99696.98;106963;1275;124141;-71
2022/05/29 09:10:51;;;;;;;;;;;;;;;25.54;36.21;99685.79;106822;1276;107528;-71
2022/05/29 09:13:22;;;;;;;;;;;;;;;25.60;35.87;99688.73;105433;1276;124478;-71
2022/05/29 09:15:51;;;;;;;;;;;;;;;25.19;35.55;99686.88;105577;1276;97831;-71
2022/05/29 09:18:24;;;;;;;;;;;;;;;24.97;35.76;99682.42;107057;1276;112679;-71
2022/05/29 09:20:54;;;;;;;;;;;;;;;24.44;35.08;99684.00;106962;1276;124609;-71
2022/05/29 09:23:25;;;;;;;;;;;;;;;23.78;35.84;99684.23;107030;1276;108197;-71
2022/05/29 09:25:55;;;;;;;;;;;;;;;23.07;36.17;99683.47;105595;1276;124318;-72
2022/05/29 09:28:25;;;;;;;;;;;;;;;22.48;36.99;99698.63;107035;1276;96233;-72
2022/05/29 09:30:54;;;;;;;;;;;;;;;22.15;38.14;99693.21;106039;1276;112718;-72
2022/05/29 09:33:24;;;;;;;;;;;;;;;21.90;38.35;99693.86;106986;1275;124494;-72
2022/05/29 09:35:56;;;;;;;;;;;;;;;21.49;38.13;99691.73;107015;1276;108767;-71
2022/05/29 09:38:26;;;;;;;;;;;;;;;21.11;38.45;99691.63;106834;1276;125769;-71
2022/05/29 09:40:57;;;;;;;;;;;;;;;20.85;38.38;99693.61;106532;1276;96307;-70
2022/05/29 09:43:26;;;;;;;;;;;;;;;20.62;39.31;99695.38;105542;1276;124163;-73
2022/05/29 09:45:54;;;;;;;;;;;;;;;20.38;38.99;99691.52;105633;1276;109391;-72
2022/05/29 09:51:14;;;;;;;;;;;;;;;19.78;39.57;99694.77;105453;1276;124388;-70
2022/05/29 09:53:45;;;;;;;;;;;;;;;19.61;40.41;99696.98;107075;1276;97030;-73
2022/05/29 09:56:13;;;;;;;;;;;;;;;19.55;41.02;99708.20;106849;1277;124131;-73
2022/05/29 09:58:45;;;;;;;;;;;;;;;19.44;41.24;99704.44;107036;1275;109102;-72
2022/05/29 10:01:25;;;;;;;;;;;;;;;19.36;41.67;99705.23;106925;1276;124273;-72
2022/05/29 10:03:53;;;;;;;;;;;;;;;19.29;41.72;99706.13;106972;1276;96099;-72
2022/05/29 10:06:26;;;;;;;;;;;;;;;19.24;41.82;99713.55;107063;1276;96152;-72
2022/05/29 10:09:03;;;;;;;;;;;;;;;19.23;41.56;99703.77;106807;1277;124224;-70
2022/05/29 10:11:31;;;;;;;;;;;;;;;19.26;41.75;99701.39;106966;1276;108186;-72
2022/05/29 10:14:16;;;;;;;;;;;;;;;19.24;41.47;99704.20;105457;1276;124341;-71
2022/05/29 10:16:43;;;;;;;;;;;;;;;19.39;41.98;99703.23;105532;1276;97825;-71
2022/05/29 10:19:14;;;;;;;;;;;;;;;19.50;41.54;99704.36;105498;1276;125067;-72
2022/05/29 10:21:43;;;;;;;;;;;;;;;19.66;41.08;99711.41;105663;1276;112988;-73
2022/05/29 10:24:13;;;;;;;;;;;;;;;19.66;40.70;99714.09;105495;1276;109312;-71
2022/05/29 10:26:48;;;;;;;;;;;;;;;19.39;41.13;99714.14;105378;1278;124204;-71
2022/05/29 10:29:19;;;;;;;;;;;;;;;19.14;41.65;99724.86;105364;1279;98748;-71
2022/05/29 10:31:48;;;;;;;;;;;;;;;18.81;42.13;99732.84;105456;1278;124172;-71
2022/05/29 10:34:21;;;;;;;;;;;;;;;18.38;42.23;99731.38;106931;1277;111266;-72
2022/05/29 10:36:49;;;;;;;;;;;;;;;17.89;42.41;99734.20;107062;1276;107700;-72
2022/05/29 10:39:19;;;;;;;;;;;;;;;17.62;43.19;99732.78;106776;1276;124205;-72
2022/05/29 10:41:47;;;;;;;;;;;;;;;17.33;43.72;99738.60;106972;1276;96892;-72
2022/05/29 10:44:33;;;;;;;;;;;;;;;17.04;44.09;99743.20;106742;1276;257381;-72
2022/05/29 10:47:05;;;;;;;;;;;;;;;16.70;44.85;99739.50;105975;1276;110748;-71
2022/05/29 10:49:34;;;;;;;;;;;;;;;16.39;45.44;99735.02;105782;1276;125207;-71
2022/05/29 10:52:10;;;;;;;;;;;;;;;16.23;46.17;99729.03;107014;1275;108971;-71
2022/05/29 10:54:48;;;;;;;;;;;;;;;16.15;46.71;99726.02;107003;1276;96990;-72
2022/05/29 10:57:24;;;;;;;;;;;;;;;16.17;47.37;99722.91;106903;1276;123971;-72
2022/05/29 11:00:06;;;;;;;;;;;;;;;16.22;47.82;99716.26;106980;1276;111063;-72
2022/05/29 11:05:37;;;;;;;;;;;;;;;16.42;48.38;99711.45;106954;1276;107831;-72
2022/05/29 11:08:15;;;;;;;;;;;;;;;16.55;48.58;99711.67;106942;1276;124675;-72
2022/05/29 11:10:55;;;;;;;;;;;;;;;16.75;48.74;99713.70;107028;1276;96166;-71
2022/05/29 11:13:29;;;;;;;;;;;;;;;16.93;48.30;99707.77;106854;1276;126523;-72
2022/05/29 11:16:00;;;;;;;;;;;;;;;17.14;48.12;99713.55;105958;1276;109107;-74
2022/05/29 11:18:39;;;;;;;;;;;;;;;17.39;47.98;99715.21;105555;1276;108802;-71
2022/05/29 11:21:14;;;;;;;;;;;;;;;17.63;47.81;99706.16;105473;1275;124623;-72
2022/05/29 11:24:02;;;;;;;;;;;;;;;17.81;47.38;99713.36;105597;1276;97971;-74
2022/05/29 11:26:42;;;;;;;;;;;;;;;17.98;47.41;99719.66;105426;1276;124003;-72
2022/05/29 11:29:19;;;;;;;;;;;;;;;18.13;46.91;99720.39;105615;1276;108914;-72
2022/05/29 11:32:16;;;;;;;;;;;;;;;18.27;46.43;99715.85;105480;1276;124244;-71
2022/05/29 11:34:46;;;;;;;;;;;;;;;18.46;46.01;99719.92;105590;1276;97946;-72
2022/05/29 11:37:41;;;;;;;;;;;;;;;18.68;45.25;99714.64;105438;1279;124164;-71
2022/05/29 11:40:15;;;;;;;;;;;;;;;18.88;44.80;99710.68;104931;1284;112694;-72
2022/05/29 11:42:47;;;;;;;;;;;;;;;19.09;44.66;99705.20;104788;1284;109062;-69
2022/05/29 11:45:19;;;;;;;;;;;;;;;19.30;44.24;99704.66;104805;1284;124326;-73
2022/05/29 11:53:27;;;;;;;;;;;;;;;19.41;40.63;99688.98;106217;1284;112526;-71
2022/05/29 11:55:55;;;;;;;;;;;;;;;19.43;40.63;99687.27;105976;1284;125793;-71
2022/05/29 11:58:26;;;;;;;;;;;;;;;19.54;40.28;99689.77;104845;1284;108963;-70
2022/05/29 12:00:57;;;;;;;;;;;;;;;19.66;40.30;99685.99;104835;1284;97970;-70
2022/05/29 12:03:31;;;;;;;;;;;;;;;19.72;39.81;99684.27;105931;1284;124727;-70
2022/05/29 12:06:02;;;;;;;;;;;;;;;19.83;40.05;99681.15;106166;1284;110061;-70
2022/05/29 12:08:33;;;;;;;;;;;;;;;19.84;39.99;99679.27;106065;1284;125056;-70
2022/05/29 12:11:05;;;;;;;;;;;;;;;19.83;40.41;99672.13;106190;1284;107899;-70
2022/05/29 12:13:35;;;;;;;;;;;;;;;19.92;40.85;99673.88;105998;1284;125474;-72
2022/05/29 12:16:05;;;;;;;;;;;;;;;19.97;40.57;99668.02;105112;1279;98139;-70
2022/05/29 12:18:39;;;;;;;;;;;;;;;19.83;40.36;99663.63;105511;1276;112380;-69
2022/05/29 12:21:08;;;;;;;;;;;;;;;19.84;40.50;99660.95;105472;1276;124196;-69
2022/05/29 12:23:40;;;;;;;;;;;;;;;19.81;40.54;99656.57;105508;1276;108823;-71
2022/05/29 12:26:12;;;;;;;;;;;;;;;19.80;40.77;99658.93;106846;1276;124741;-71
2022/05/29 12:28:43;;;;;;;;;;;;;;;20.00;41.11;99658.80;105945;1276;97836;-72
2022/05/29 12:31:16;;;;;;;;;;;;;;;20.21;40.92;99657.56;105435;1276;124252;-71
2022/05/29 12:33:45;;;;;;;;;;;;;;;20.24;40.65;99653.60;107111;1276;107473;-72
2022/05/29 12:36:18;;;;;;;;;;;;;;;20.28;40.57;99661.03;107051;1276;109087;-72
2022/05/29 12:39:01;;;;;;;;;;;;;;;20.20;40.04;99665.64;106966;1276;124684;-71
2022/05/29 12:41:41;;;;;;;;;;;;;;;20.25;40.19;99661.35;107030;1276;95781;-71
2022/05/29 12:44:31;;;;;;;;;;;;;;;20.26;40.00;99668.27;106927;1276;124185;-71
2022/05/29 12:47:07;;;;;;;;;;;;;;;20.11;40.02;99681.14;107024;1276;106550;-71
2022/05/29 12:49:51;;;;;;;;;;;;;;;20.01;39.83;99679.35;106922;1276;127359;-71
2022/05/29 12:52:20;;;;;;;;;;;;;;;19.91;39.95;99686.66;106030;1276;97875;-71
2022/05/29 12:55:00;;;;;;;;;;;;;;;19.81;40.00;99685.84;105642;1276;98432;-70
2022/05/29 12:57:39;;;;;;;;;;;;;;;19.77;39.98;99687.42;105633;1276;112479;-71
2022/05/29 13:00:20;;;;;;;;;;;;;;;19.70;39.95;99688.48;106919;1276;109153;-72
2022/05/29 13:03:01;;;;;;;;;;;;;;;19.68;40.00;99690.41;106616;1276;125531;-70
2022/05/29 13:05:38;;;;;;;;;;;;;;;19.74;40.10;99690.27;106990;1276;95947;-71
2022/05/29 13:08:16;;;;;;;;;;;;;;;19.76;39.79;99683.27;106943;1276;124024;-71
2022/05/29 13:10:45;;;;;;;;;;;;;;;19.83;40.12;99683.24;107065;1276;112677;-72
2022/05/29 13:13:16;;;;;;;;;;;;;;;19.82;40.03;99687.69;106797;1276;125212;-71
2022/05/29 13:15:44;;;;;;;;;;;;;;;19.77;40.18;99683.54;106913;1277;108748;-72
2022/05/29 13:18:38;;;;;;;;;;;;;;;19.76;40.52;99683.83;106306;1278;97827;-71
2022/05/29 13:21:12;;;;;;;;;;;;;;;19.73;40.55;99688.94;105889;1276;125108;-70
2022/05/29 13:23:44;;;;;;;;;;;;;;;19.74;40.65;99682.38;106929;1277;112488;-70
2022/05/29 13:26:14;;;;;;;;;;;;;;;19.77;40.47;99688.48;106737;1278;125151;-71
2022/05/29 13:28:55;;;;;;;;;;;;;;;19.80;39.99;99695.09;106887;1277;110047;-72